Sangudo, Canada
Current Conditions -  °F | °C
As of 10:00 PM on Friday 21 Nov 2014 (Local Time) from CYZU Reporting Station
Moderate Fog Moderate Fog  
Wind Chill: 24°   Ceiling: 100
Heat Index: 32°   Visibility: 0.12mi
Dew Point: 32°   Wind: 10mph
Humidity: 100%   Direction: 90°E
Pressure: 29.26"   Gusts: 20mph
Location:  53.88°N, 114.9°W
Report Text: CYZU 220500Z 09009G17KT 1/8SM FZFG VV001 M00/M00 A2926 RMK FG8 LAST OBS/NEXT 221300Z SLP935
Loading
Personal Weather Stations






























Interactive Weather Map New forecast layout! Learn more

10-Day Weather Forecast

Advertisements
Track Severe Weather on mobile